Time;durP1;ratioP1;P1;durP2;ratioP2;P2;SDS_P1;SDS_P2;PMS_P1;PMS_P2;Temp;Humidity;BMP_temperature;BMP_pressure;BME280_temperature;BME280_humidity;BME280_pressure;Samples;Min_cycle;Max_cycle;Signal;HPM_P1;HPM_P2
2023/05/10 00:01:55;;;;;;;4.30;3.88;;;;;;;14.41;70.96;100627.72;5111177;28;20024;-67
2023/05/10 00:04:21;;;;;;;14.27;3.60;;;;;;;14.42;71.06;100638.34;5111022;28;20023;-67
2023/05/10 00:06:46;;;;;;;7.30;3.72;;;;;;;14.31;70.76;100629.63;5110933;28;20511;-67
2023/05/10 00:09:12;;;;;;;4.18;3.67;;;;;;;14.32;71.03;100634.81;5110209;28;20027;-67
2023/05/10 00:11:37;;;;;;;4.90;4.18;;;;;;;14.25;70.64;100625.66;5092345;28;20031;-67
2023/05/10 00:14:03;;;;;;;4.15;3.70;;;;;;;14.29;70.26;100640.56;5110132;28;20388;-67
2023/05/10 00:16:28;;;;;;;4.78;3.65;;;;;;;14.25;70.37;100635.59;5110679;28;20484;-67
2023/05/10 00:18:54;;;;;;;6.20;4.07;;;;;;;14.26;70.21;100643.56;5096327;28;20077;-67
2023/05/10 00:21:19;;;;;;;4.40;3.45;;;;;;;14.15;70.07;100624.81;5110572;28;20034;-67
2023/05/10 00:23:45;;;;;;;5.10;3.75;;;;;;;14.19;70.01;100626.22;5110595;28;20476;-67
2023/05/10 00:26:10;;;;;;;4.95;3.63;;;;;;;14.01;70.44;100602.88;5110302;28;20019;-67
2023/05/10 00:28:36;;;;;;;6.32;3.60;;;;;;;14.04;70.17;100603.44;5110777;28;20030;-67
2023/05/10 00:31:01;;;;;;;5.57;4.07;;;;;;;14.15;70.26;100629.38;5110094;28;20027;-67
2023/05/10 00:33:27;;;;;;;4.55;3.53;;;;;;;14.06;70.17;100614.91;5092022;28;20035;-67
2023/05/10 00:35:52;;;;;;;7.38;4.28;;;;;;;14.10;70.49;100612.78;5110737;28;20032;-67
2023/05/10 00:38:17;;;;;;;5.28;3.75;;;;;;;14.04;69.88;100610.69;5110273;28;20395;-67
2023/05/10 00:40:43;;;;;;;4.18;3.78;;;;;;;13.97;69.60;100598.81;5110550;28;20114;-68
2023/05/10 00:43:09;;;;;;;7.30;3.85;;;;;;;13.99;69.49;100599.50;5110322;28;20031;-67
2023/05/10 00:45:36;;;;;;;4.50;3.63;;;;;;;14.00;69.05;100610.16;5110519;28;20055;-67
2023/05/10 00:48:03;;;;;;;5.25;4.30;;;;;;;13.83;69.52;100591.22;5109505;28;20023;-67
2023/05/10 00:50:30;;;;;;;6.80;4.00;;;;;;;13.90;69.72;100620.13;5110035;28;20043;-67
2023/05/10 00:52:57;;;;;;;4.85;3.92;;;;;;;13.78;69.16;100605.13;5110446;28;20028;-68
2023/05/10 00:55:23;;;;;;;5.18;4.30;;;;;;;13.83;69.38;100612.78;5110124;28;20024;-68
2023/05/10 00:57:49;;;;;;;7.68;4.32;;;;;;;13.78;69.39;100613.22;5110111;28;20031;-68
2023/05/10 01:00:18;;;;;;;5.30;4.38;;;;;;;13.71;69.75;100602.16;5109449;28;20049;-68
2023/05/10 01:02:47;;;;;;;7.45;4.60;;;;;;;13.73;69.88;100610.09;5109858;28;20368;-68
2023/05/10 01:05:13;;;;;;;5.18;4.68;;;;;;;13.59;70.05;100592.59;5109738;28;20027;-67
2023/05/10 01:07:39;;;;;;;5.38;4.20;;;;;;;13.66;70.16;100604.47;5091927;28;20054;-67
2023/05/10 01:10:08;;;;;;;5.22;4.72;;;;;;;13.61;70.12;100604.03;5109436;28;20486;-67
2023/05/10 01:12:37;;;;;;;7.40;4.95;;;;;;;13.58;70.48;100604.34;5109993;28;20085;-67
2023/05/10 01:15:05;;;;;;;5.18;4.50;;;;;;;13.53;70.84;100603.94;5109763;28;20031;-68
2023/05/10 01:17:31;;;;;;;5.68;4.53;;;;;;;13.45;70.97;100593.03;5109493;28;20035;-67
2023/05/10 01:19:56;;;;;;;5.93;4.65;;;;;;;13.47;70.93;100606.34;5091226;28;20173;-67
2023/05/10 01:22:43;;;;;;;6.13;5.25;;;;;;;13.44;70.65;100598.56;5108997;28;20452;-67
2023/05/10 01:25:33;;;;;;;8.30;5.22;;;;;;;13.43;70.55;100594.19;5108145;28;20038;-67
2023/05/10 01:28:17;;;;;;;5.97;4.68;;;;;;;13.37;70.59;100595.63;5107828;28;20043;-67
2023/05/10 01:31:13;;;;;;;8.57;5.28;;;;;;;13.32;71.46;100599.75;5109197;28;20099;-68
2023/05/10 01:33:47;;;;;;;9.95;5.88;;;;;;;13.30;71.54;100594.50;5108698;28;20034;-67
2023/05/10 01:36:32;;;;;;;;;;;;;;;13.24;72.07;100600.47;5091356;28;20040;-68
2023/05/10 01:39:06;;;;;;;6.00;5.22;;;;;;;13.15;72.38;100595.94;5108998;28;20372;-68
2023/05/10 01:41:53;;;;;;;6.68;5.63;;;;;;;13.18;72.50;100600.19;5109076;28;20031;-68
2023/05/10 01:44:37;;;;;;;5.85;5.25;;;;;;;13.12;73.27;100592.69;5108897;28;20065;-68
2023/05/10 01:47:12;;;;;;;8.43;5.53;;;;;;;13.07;73.33;100589.59;5108820;28;20031;-68
2023/05/10 01:50:06;;;;;;;10.38;6.38;;;;;;;13.03;73.41;100582.78;5109742;28;20036;-68
2023/05/10 01:52:36;;;;;;;7.07;5.63;;;;;;;13.00;73.66;100594.69;5106254;28;20047;-68
2023/05/10 01:55:06;;;;;;;8.95;5.90;;;;;;;12.94;73.76;100587.16;5089065;28;20044;-68
2023/05/10 01:57:39;;;;;;;6.45;5.57;;;;;;;12.94;73.97;100592.56;5107039;28;20172;-68
2023/05/10 02:00:07;;;;;;;9.73;5.75;;;;;;;12.87;74.27;100577.09;5109251;28;20020;-68
2023/05/10 02:02:37;;;;;;;7.93;5.43;;;;;;;12.83;74.27;100576.53;5108299;28;20040;-68
2023/05/10 02:05:05;;;;;;;9.88;6.05;;;;;;;12.93;74.38;100595.38;5107778;28;20031;-68
2023/05/10 02:07:34;;;;;;;6.43;4.93;;;;;;;12.90;74.69;100591.13;5108331;28;20615;-68
2023/05/10 02:10:02;;;;;;;15.50;5.93;;;;;;;12.90;74.21;100584.91;5106512;28;20084;-68
2023/05/10 02:12:30;;;;;;;11.93;5.70;;;;;;;12.87;74.18;100577.94;5108516;28;20024;-68
2023/05/10 02:14:56;;;;;;;9.02;5.35;;;;;;;12.85;74.35;100573.69;5108307;28;20566;-68
2023/05/10 02:17:24;;;;;;;8.38;6.38;;;;;;;12.72;75.03;100555.16;5090237;28;20050;-68
2023/05/10 02:19:52;;;;;;;8.38;5.72;;;;;;;12.82;75.44;100571.28;5108539;28;20031;-68
2023/05/10 02:22:19;;;;;;;6.60;5.75;;;;;;;12.73;75.17;100562.22;5108065;28;20089;-68
2023/05/10 02:24:46;;;;;;;8.38;5.65;;;;;;;12.73;75.04;100562.22;5108278;28;20055;-68
2023/05/10 02:27:14;;;;;;;6.57;5.90;;;;;;;12.75;74.59;100567.47;5108059;28;20040;-68
2023/05/10 02:29:39;;;;;;;7.57;5.50;;;;;;;12.69;74.74;100563.50;5108385;28;20039;-68
2023/05/10 02:32:06;;;;;;;7.00;5.18;;;;;;;12.56;74.88;100548.63;5089719;28;20019;-68
2023/05/10 02:34:32;;;;;;;7.15;5.65;;;;;;;12.60;75.42;100560.81;5108012;28;20092;-68
2023/05/10 02:36:59;;;;;;;7.80;5.03;;;;;;;12.57;75.23;100555.72;5108433;28;20035;-68
2023/05/10 02:39:28;;;;;;;11.05;5.93;;;;;;;12.56;76.18;100559.41;5107745;28;20745;-68
2023/05/10 02:41:55;;;;;;;5.93;4.82;;;;;;;12.36;76.06;100534.34;5108390;28;20023;-68
2023/05/10 02:44:22;;;;;;;7.43;5.60;;;;;;;12.35;76.02;100540.69;5108655;28;20407;-68
2023/05/10 02:46:47;;;;;;;5.80;5.20;;;;;;;12.42;76.52;100562.50;5108400;28;20483;-68
2023/05/10 02:49:13;;;;;;;7.55;6.13;;;;;;;12.27;76.79;100537.88;5108561;28;20031;-68
2023/05/10 02:51:47;;;;;;;9.20;5.22;;;;;;;12.33;76.89;100553.44;5109002;28;20031;-68
2023/05/10 02:54:19;;;;;;;8.95;5.32;;;;;;;12.22;77.88;100550.88;5108583;28;20448;-68
2023/05/10 02:56:49;;;;;;;6.22;4.97;;;;;;;12.24;77.84;100556.09;5108507;28;20095;-68
2023/05/10 02:59:15;;;;;;;6.68;5.30;;;;;;;12.19;78.09;100551.16;5108256;28;20034;-67
2023/05/10 03:01:41;;;;;;;6.72;5.25;;;;;;;12.11;78.13;100547.47;5108545;28;20023;-68
2023/05/10 03:04:07;;;;;;;7.50;5.38;;;;;;;11.99;78.50;100537.84;5107633;28;20030;-68
2023/05/10 03:06:32;;;;;;;6.30;5.53;;;;;;;11.93;78.46;100541.91;5108587;28;20103;-68
2023/05/10 03:08:58;;;;;;;6.57;5.45;;;;;;;11.83;78.51;100527.59;5108272;28;20073;-67
2023/05/10 03:11:36;;;;;;;7.22;5.93;;;;;;;11.88;79.46;100546.00;5108374;28;20030;-68
2023/05/10 03:14:40;;;;;;;7.72;5.55;;;;;;;11.88;79.99;100556.75;5107898;28;20028;-68
2023/05/10 03:17:09;;;;;;;9.23;5.53;;;;;;;11.85;80.28;100557.88;5108217;28;20019;-68
2023/05/10 03:19:55;;;;;;;7.78;5.70;;;;;;;11.72;80.36;100540.28;5108069;28;20034;-67
2023/05/10 03:22:34;;;;;;;9.10;6.03;;;;;;;11.76;80.45;100558.69;5108038;28;20043;-68
2023/05/10 03:25:05;;;;;;;7.72;5.65;;;;;;;11.68;81.15;100555.84;5108097;28;20035;-68
2023/05/10 03:27:32;;;;;;;8.82;5.97;;;;;;;11.57;81.17;100537.09;5110408;28;20023;-68
2023/05/10 03:29:58;;;;;;;7.57;6.10;;;;;;;11.67;81.88;100572.94;5112805;28;20023;-68
2023/05/10 03:32:23;;;;;;;7.57;6.38;;;;;;;11.66;81.88;100567.69;5102710;28;20028;-68
2023/05/10 03:34:49;;;;;;;9.93;6.38;;;;;;;11.53;81.58;100549.09;5112550;28;20019;-67
2023/05/10 03:37:14;;;;;;;9.50;6.13;;;;;;;11.65;81.70;100566.88;5112125;28;20046;-68
2023/05/10 03:39:40;;;;;;;7.85;6.50;;;;;;;11.63;81.63;100562.59;5112502;28;20114;-67
2023/05/10 03:42:05;;;;;;;9.48;6.60;;;;;;;11.51;82.37;100543.00;5111963;28;20059;-68
2023/05/10 03:44:33;;;;;;;7.43;6.35;;;;;;;11.57;82.40;100557.75;5112272;28;20062;-68
2023/05/10 03:46:58;;;;;;;10.02;7.05;;;;;;;11.50;83.22;100557.41;5112395;28;20039;-68
2023/05/10 03:49:24;;;;;;;11.68;6.70;;;;;;;11.51;83.50;100564.47;5112176;28;20495;-67
2023/05/10 03:51:49;;;;;;;8.40;6.32;;;;;;;11.51;83.48;100564.47;5093708;28;20058;-68
2023/05/10 03:54:15;;;;;;;7.20;6.45;;;;;;;11.54;83.57;100561.53;5111765;28;20038;-67
2023/05/10 03:56:40;;;;;;;8.32;6.90;;;;;;;11.58;84.14;100568.38;5111807;28;20476;-68
2023/05/10 03:59:07;;;;;;;8.85;6.07;;;;;;;11.60;84.07;100560.16;5111697;28;20023;-68
2023/05/10 04:01:34;;;;;;;9.00;6.97;;;;;;;11.64;84.23;100558.94;5112141;28;20050;-68
2023/05/10 04:03:59;;;;;;;10.13;7.03;;;;;;;11.72;84.22;100559.09;5109899;28;20099;-67
2023/05/10 04:06:24;;;;;;;9.38;6.75;;;;;;;11.77;84.40;100560.38;5111796;28;20031;-67
2023/05/10 04:08:50;;;;;;;11.93;7.32;;;;;;;11.88;83.60;100565.66;5111750;28;20130;-68
2023/05/10 04:11:15;;;;;;;14.38;6.97;;;;;;;11.99;82.88;100570.09;5093098;28;20055;-68
2023/05/10 04:13:41;;;;;;;9.88;6.50;;;;;;;12.10;82.87;100572.66;5111646;28;20081;-68
2023/05/10 04:16:06;;;;;;;10.90;7.60;;;;;;;12.13;81.50;100569.69;5111577;28;20023;-68
2023/05/10 04:18:32;;;;;;;10.27;7.53;;;;;;;12.29;80.90;100575.38;5111695;28;20687;-68
2023/05/10 04:20:57;;;;;;;9.60;6.95;;;;;;;12.41;80.91;100576.97;5111391;28;20073;-68
2023/05/10 04:23:23;;;;;;;7.65;6.50;;;;;;;12.53;80.32;100582.06;5111378;28;20057;-68
2023/05/10 04:25:48;;;;;;;10.77;7.35;;;;;;;12.65;78.92;100580.09;5111490;28;20392;-67
2023/05/10 04:28:14;;;;;;;8.57;6.70;;;;;;;12.81;78.04;100578.53;5088026;28;20062;-67
2023/05/10 04:30:40;;;;;;;9.23;7.30;;;;;;;12.95;76.89;100583.47;5107669;28;20035;-67
2023/05/10 04:33:05;;;;;;;9.88;6.43;;;;;;;13.09;75.97;100579.53;5111281;28;20028;-67
2023/05/10 04:35:31;;;;;;;9.23;7.47;;;;;;;13.18;74.87;100565.16;5110643;28;20019;-67
2023/05/10 04:37:56;;;;;;;8.63;7.75;;;;;;;13.43;74.30;100592.34;5110129;28;20057;-67
2023/05/10 04:40:22;;;;;;;12.02;7.80;;;;;;;13.55;74.06;100587.63;5110923;28;20027;-67
2023/05/10 04:42:47;;;;;;;11.77;8.38;;;;;;;13.68;73.76;100588.97;5111388;28;20027;-67
2023/05/10 04:45:16;;;;;;;12.10;7.88;;;;;;;13.86;71.19;100583.66;5110701;28;20020;-68
2023/05/10 04:47:41;;;;;;;9.30;7.32;;;;;;;13.96;71.30;100583.63;5110739;28;20496;-67
2023/05/10 04:50:07;;;;;;;9.73;7.10;;;;;;;14.10;71.15;100575.03;5110827;28;20029;-67
2023/05/10 04:52:33;;;;;;;8.30;6.50;;;;;;;14.17;70.51;100565.31;5109595;28;20054;-67
2023/05/10 04:54:58;;;;;;;9.85;6.53;;;;;;;14.36;69.34;100578.72;5111115;28;20076;-67
2023/05/10 04:57:24;;;;;;;11.93;6.80;;;;;;;14.49;68.78;100579.19;5110289;28;20035;-68
2023/05/10 04:59:49;;;;;;;11.00;6.85;;;;;;;14.44;67.90;100543.75;5110584;27;20032;-67
2023/05/10 05:02:15;;;;;;;8.63;6.43;;;;;;;14.73;67.29;100577.59;5110475;28;20047;-67
2023/05/10 05:04:40;;;;;;;9.32;6.13;;;;;;;14.87;66.73;100577.03;5092449;28;20026;-67
2023/05/10 05:07:06;;;;;;;9.85;6.90;;;;;;;15.04;66.31;100575.31;5110518;28;20035;-67
2023/05/10 05:09:34;;;;;;;9.68;6.18;;;;;;;15.17;65.64;100564.94;5110675;28;20034;-67
2023/05/10 05:11:59;;;;;;;7.95;5.95;;;;;;;15.39;64.87;100567.16;5110533;28;20253;-67
2023/05/10 05:14:25;;;;;;;7.43;6.10;;;;;;;15.64;63.89;100579.84;5109884;28;20440;-67
2023/05/10 05:16:53;;;;;;;8.90;6.30;;;;;;;15.82;62.93;100576.03;5110666;28;20662;-67
2023/05/10 05:19:19;;;;;;;6.00;5.32;;;;;;;16.02;61.56;100575.78;5110157;28;20058;-67
2023/05/10 05:21:44;;;;;;;6.28;5.10;;;;;;;16.13;61.38;100570.91;5110600;28;20454;-67
2023/05/10 05:24:12;;;;;;;9.48;5.55;;;;;;;16.20;61.11;100566.53;5092584;28;20097;-67
2023/05/10 05:26:37;;;;;;;6.72;5.47;;;;;;;16.27;60.49;100564.00;5110294;28;20031;-67
2023/05/10 05:29:02;;;;;;;8.43;6.10;;;;;;;16.41;60.12;100566.09;5110414;28;20111;-67
2023/05/10 05:31:28;;;;;;;6.47;5.78;;;;;;;16.44;59.86;100572.03;5091743;28;20031;-67
2023/05/10 05:33:54;;;;;;;8.40;5.70;;;;;;;16.51;60.07;100574.94;5110085;28;20106;-67
2023/05/10 05:36:19;;;;;;;9.35;5.80;;;;;;;16.49;59.95;100572.41;5109781;28;20094;-67
2023/05/10 05:38:45;;;;;;;6.03;5.43;;;;;;;16.55;60.09;100573.59;5110281;28;20106;-67
2023/05/10 05:41:10;;;;;;;6.43;4.85;;;;;;;16.58;59.72;100570.56;5109684;28;20062;-67
2023/05/10 05:43:36;;;;;;;7.78;5.32;;;;;;;16.70;59.69;100585.47;5110234;28;20085;-67
2023/05/10 05:46:01;;;;;;;8.13;5.22;;;;;;;16.76;59.83;100573.94;5091855;28;20065;-68
2023/05/10 05:48:27;;;;;;;6.88;4.78;;;;;;;16.85;59.33;100571.09;5109541;28;20097;-68
2023/05/10 05:50:56;;;;;;;8.10;4.63;;;;;;;16.89;59.35;100567.03;5108672;28;20464;-67
2023/05/10 05:53:22;;;;;;;8.73;4.50;;;;;;;17.04;59.10;100580.75;5109282;28;20467;-67
2023/05/10 05:55:58;;;;;;;7.70;4.70;;;;;;;17.15;58.86;100580.41;5109576;28;20085;-67
2023/05/10 05:58:24;;;;;;;6.32;4.47;;;;;;;17.24;58.70;100584.78;5109005;28;20063;-67
2023/05/10 06:00:51;;;;;;;7.20;4.35;;;;;;;17.34;58.12;100585.47;5109538;28;20035;-67
2023/05/10 06:03:17;;;;;;;6.15;4.00;;;;;;;17.41;56.92;100584.59;5109291;28;20032;-67
2023/05/10 06:05:43;;;;;;;7.55;4.30;;;;;;;17.44;56.42;100587.00;5109343;28;20047;-67
2023/05/10 06:08:08;;;;;;;4.82;4.20;;;;;;;17.56;56.17;100593.78;5109002;28;20111;-67
2023/05/10 06:10:34;;;;;;;4.80;3.95;;;;;;;17.53;55.68;100575.13;5108889;28;20529;-67
2023/05/10 06:12:59;;;;;;;7.32;3.80;;;;;;;17.73;55.10;100597.28;5108781;28;20050;-67
2023/05/10 06:15:25;;;;;;;6.57;4.35;;;;;;;17.63;55.22;100564.06;5097748;28;20502;-68
2023/05/10 06:17:51;;;;;;;3.72;3.38;;;;;;;17.79;54.98;100583.03;5109028;28;20114;-67
2023/05/10 06:20:16;;;;;;;6.35;4.00;;;;;;;17.97;54.65;100591.78;5089885;28;20106;-68
2023/05/10 06:22:42;;;;;;;4.97;3.78;;;;;;;18.10;54.50;100603.75;5108835;28;20059;-66
2023/05/10 06:25:08;;;;;;;6.28;3.80;;;;;;;18.12;53.73;100592.72;5108445;28;20031;-67
2023/05/10 06:27:34;;;;;;;6.07;4.07;;;;;;;18.25;52.86;100603.03;5090820;28;20035;-68
2023/05/10 06:29:59;;;;;;;4.97;3.50;;;;;;;18.24;52.43;100594.03;5090574;28;20038;-67
2023/05/10 06:32:25;;;;;;;4.25;3.83;;;;;;;18.28;51.87;100589.13;5108632;28;20024;-68
2023/05/10 06:34:50;;;;;;;4.15;2.90;;;;;;;18.43;52.24;100598.22;5108834;28;20110;-67
2023/05/10 06:37:16;;;;;;;6.20;3.85;;;;;;;18.50;51.91;100597.34;5109094;28;20020;-67
2023/05/10 06:39:41;;;;;;;4.78;3.40;;;;;;;18.61;51.45;100607.81;5108501;28;20027;-68
2023/05/10 06:42:07;;;;;;;4.20;3.65;;;;;;;18.58;51.44;100610.03;5108354;28;20046;-67
2023/05/10 06:44:33;;;;;;;5.63;3.67;;;;;;;18.68;51.75;100611.50;5108063;28;20119;-67
2023/05/10 06:46:58;;;;;;;4.65;3.33;;;;;;;18.75;51.76;100620.63;5107660;28;20031;-68
2023/05/10 06:49:24;;;;;;;4.25;3.42;;;;;;;18.88;51.46;100610.00;5108060;28;20019;-68
2023/05/10 06:51:49;;;;;;;3.42;3.08;;;;;;;18.97;51.24;100611.63;5108089;28;20030;-67
2023/05/10 06:54:14;;;;;;;4.82;3.03;;;;;;;19.09;50.36;100609.34;5108024;28;20032;-67
2023/05/10 06:56:40;;;;;;;3.88;3.33;;;;;;;19.17;49.80;100610.13;5108356;28;20020;-68
2023/05/10 06:59:06;;;;;;;3.53;3.10;;;;;;;19.26;49.37;100606.34;5102537;28;20057;-68
2023/05/10 07:01:31;;;;;;;3.97;3.33;;;;;;;19.31;49.11;100609.34;5106410;28;20049;-67
2023/05/10 07:03:57;;;;;;;4.40;3.25;;;;;;;19.30;49.18;100613.09;5107911;28;20020;-67
2023/05/10 07:06:22;;;;;;;4.25;3.45;;;;;;;19.25;49.15;100599.16;5107591;28;20224;-68
2023/05/10 07:08:48;;;;;;;4.85;3.72;;;;;;;19.43;49.16;100612.44;5108258;28;20065;-67
2023/05/10 07:11:13;;;;;;;3.95;3.55;;;;;;;19.54;49.60;100601.13;5107801;28;20034;-68
2023/05/10 07:13:41;;;;;;;3.95;3.45;;;;;;;19.64;49.04;100593.56;5107983;28;20035;-68
2023/05/10 07:16:07;;;;;;;5.00;4.15;;;;;;;19.73;48.83;100603.28;5108242;28;20015;-68
2023/05/10 07:18:33;;;;;;;3.45;3.15;;;;;;;19.75;49.06;100587.63;5108345;28;20039;-67
2023/05/10 07:20:58;;;;;;;4.97;3.42;;;;;;;19.90;49.00;100600.22;5108334;28;20031;-67
2023/05/10 07:23:24;;;;;;;5.45;3.42;;;;;;;19.96;47.22;100590.47;5107683;28;20062;-67
2023/05/10 07:25:53;;;;;;;4.72;3.40;;;;;;;19.89;46.57;100584.91;5108401;28;20067;-68
2023/05/10 07:28:19;;;;;;;3.72;3.42;;;;;;;19.99;47.02;100595.50;5108136;28;20024;-67
2023/05/10 07:30:45;;;;;;;5.95;3.88;;;;;;;19.97;46.84;100590.28;5093381;28;20027;-68
2023/05/10 07:33:13;;;;;;;3.53;3.22;;;;;;;20.00;46.92;100589.88;5106038;28;20391;-67
2023/05/10 07:35:39;;;;;;;4.38;3.70;;;;;;;20.01;46.66;100591.59;5089627;28;20110;-67
2023/05/10 07:38:04;;;;;;;3.80;3.17;;;;;;;20.05;46.59;100578.44;5107842;28;20139;-68
2023/05/10 07:40:30;;;;;;;4.13;3.58;;;;;;;20.09;47.09;100588.75;5099929;28;20395;-67
2023/05/10 07:42:56;;;;;;;5.80;3.63;;;;;;;20.15;46.75;100579.88;5107004;28;20062;-68
2023/05/10 07:45:21;;;;;;;4.22;3.83;;;;;;;20.17;46.96;100583.25;5103824;28;20461;-67
2023/05/10 07:47:47;;;;;;;4.22;3.83;;;;;;;20.19;47.00;100589.34;5107576;28;20043;-67
2023/05/10 07:50:13;;;;;;;5.38;4.20;;;;;;;20.16;46.83;100578.81;5107435;28;20031;-68
2023/05/10 07:52:39;;;;;;;4.53;4.13;;;;;;;20.24;46.73;100579.78;5108034;28;20035;-67
2023/05/10 07:55:07;;;;;;;5.63;3.90;;;;;;;20.26;46.54;100570.38;5107436;28;20423;-67
2023/05/10 07:57:33;;;;;;;5.07;3.58;;;;;;;20.29;46.88;100574.59;5107460;28;20015;-68
2023/05/10 07:59:58;;;;;;;5.63;3.92;;;;;;;20.14;46.41;100553.66;5107383;28;20030;-68
2023/05/10 08:02:24;;;;;;;5.20;4.03;;;;;;;20.33;46.94;100571.28;5106675;28;20031;-68
2023/05/10 08:04:49;;;;;;;4.78;4.28;;;;;;;20.38;46.65;100578.88;5093858;28;20026;-68
2023/05/10 08:07:15;;;;;;;3.50;3.20;;;;;;;20.30;46.44;100568.09;5107242;28;20035;-68
2023/05/10 08:09:40;;;;;;;9.48;3.55;;;;;;;20.27;45.88;100552.97;5107559;28;20047;-68
2023/05/10 08:12:06;;;;;;;5.50;3.58;;;;;;;20.23;45.70;100543.50;5107673;28;20020;-68
2023/05/10 08:14:31;;;;;;;4.00;3.60;;;;;;;20.30;45.61;100551.75;5110966;28;20031;-68
2023/05/10 08:16:57;;;;;;;7.28;3.33;;;;;;;20.39;45.90;100565.06;5111393;28;20028;-68
2023/05/10 08:19:22;;;;;;;4.15;3.75;;;;;;;20.48;45.87;100569.38;5100359;28;20031;-67
2023/05/10 08:21:48;;;;;;;3.83;3.25;;;;;;;20.53;46.25;100571.53;5111270;28;20408;-68
2023/05/10 08:24:13;;;;;;;3.30;3.00;;;;;;;20.55;45.64;100562.13;5111020;28;20039;-68
2023/05/10 08:26:39;;;;;;;3.75;3.30;;;;;;;20.51;45.09;100560.81;5110261;28;20019;-68
2023/05/10 08:29:04;;;;;;;3.42;3.13;;;;;;;20.44;45.35;100548.16;5111313;28;20024;-68
2023/05/10 08:31:30;;;;;;;3.30;3.00;;;;;;;20.55;45.58;100567.56;5110755;28;20039;-67
2023/05/10 08:33:55;;;;;;;3.47;3.15;;;;;;;20.53;45.26;100566.91;5110155;28;20055;-67
2023/05/10 08:36:23;;;;;;;3.40;2.80;;;;;;;20.37;45.14;100542.63;5100111;28;20057;-68
2023/05/10 08:38:53;;;;;;;8.52;3.85;;;;;;;20.48;44.95;100563.94;5089400;28;20064;-67
2023/05/10 08:41:26;;;;;;;5.50;2.80;;;;;;;20.43;45.47;100552.75;5092862;28;20662;-68
2023/05/10 08:43:53;;;;;;;5.35;3.70;;;;;;;20.37;45.59;100558.97;5106769;28;20039;-68
2023/05/10 08:46:20;;;;;;;3.38;3.08;;;;;;;20.42;45.76;100551.06;5108704;28;20620;-67
2023/05/10 08:48:47;;;;;;;4.03;3.45;;;;;;;20.43;45.92;100549.16;5108499;28;20035;-68
2023/05/10 08:51:22;;;;;;;3.92;3.00;;;;;;;20.52;45.39;100561.66;5090382;28;20119;-68
2023/05/10 08:53:47;;;;;;;4.68;2.88;;;;;;;20.55;45.00;100545.78;5108816;28;20492;-67
2023/05/10 08:56:13;;;;;;;7.65;2.97;;;;;;;20.70;44.82;100559.34;5108358;28;20082;-68
2023/05/10 08:58:39;;;;;;;2.63;2.42;;;;;;;20.80;44.73;100549.78;5108300;28;20058;-68
2023/05/10 09:01:08;;;;;;;3.83;2.80;;;;;;;20.93;44.55;100552.63;5108328;28;20042;-67
2023/05/10 09:03:35;;;;;;;3.33;2.95;;;;;;;20.87;44.28;100538.97;5090572;28;20076;-68
2023/05/10 09:06:00;;;;;;;3.58;2.30;;;;;;;20.94;43.31;100553.53;5090025;28;20050;-68
2023/05/10 09:08:26;;;;;;;5.28;2.58;;;;;;;20.93;43.59;100543.63;5108496;28;20022;-68
2023/05/10 09:10:53;;;;;;;2.80;2.60;;;;;;;20.91;43.74;100538.38;5090172;28;20404;-67
2023/05/10 09:13:19;;;;;;;3.15;2.55;;;;;;;20.97;43.34;100550.41;5107772;28;20031;-68
2023/05/10 09:15:45;;;;;;;4.38;2.47;;;;;;;20.99;43.30;100542.88;5106067;28;20388;-68
2023/05/10 09:18:11;;;;;;;2.92;2.28;;;;;;;20.99;43.56;100519.16;5107708;28;20107;-68
2023/05/10 09:20:37;;;;;;;2.92;1.90;;;;;;;21.12;43.34;100519.28;5106126;28;20028;-67
2023/05/10 09:23:02;;;;;;;3.88;2.28;;;;;;;21.26;42.82;100525.69;5089044;27;20055;-68
2023/05/10 09:25:28;;;;;;;3.50;2.47;;;;;;;21.40;42.10;100549.28;5094101;28;20116;-68
2023/05/10 09:27:54;;;;;;;3.28;2.25;;;;;;;21.25;41.78;100534.94;5107401;28;20050;-68
2023/05/10 09:30:27;;;;;;;2.53;2.25;;;;;;;21.20;42.37;100519.16;5108409;28;20024;-67
2023/05/10 09:32:54;;;;;;;3.40;2.17;;;;;;;21.39;42.54;100528.50;5107963;28;20057;-67
2023/05/10 09:35:21;;;;;;;3.78;2.20;;;;;;;21.53;42.80;100533.00;5089169;28;20027;-68
2023/05/10 09:37:49;;;;;;;2.67;2.47;;;;;;;21.49;41.97;100512.63;5089582;28;20020;-67
2023/05/10 09:40:19;;;;;;;4.70;2.55;;;;;;;21.62;42.13;100529.09;5107659;28;20027;-68
2023/05/10 09:42:55;;;;;;;4.78;1.90;;;;;;;21.66;41.65;100522.19;5107285;28;20114;-68
2023/05/10 09:45:21;;;;;;;2.45;2.03;;;;;;;21.61;41.48;100527.41;5089080;28;20043;-69
2023/05/10 09:47:47;;;;;;;5.88;2.17;;;;;;;21.51;41.27;100527.75;5107554;28;20062;-67
2023/05/10 09:50:13;;;;;;;5.80;2.00;;;;;;;21.26;41.68;100499.25;5107295;28;20430;-68
2023/05/10 09:52:51;;;;;;;2.50;2.10;;;;;;;21.21;41.71;100529.00;5107678;28;20043;-69
2023/05/10 09:55:25;;;;;;;3.17;1.88;;;;;;;21.13;41.78;100539.22;5089000;28;20033;-69
2023/05/10 09:58:01;;;;;;;2.05;1.85;;;;;;;21.09;41.88;100516.94;5104230;28;20582;-68
2023/05/10 10:00:28;;;;;;;3.08;1.88;;;;;;;21.04;41.93;100507.66;5110036;27;20507;-69
2023/05/10 10:02:59;;;;;;;6.47;2.40;;;;;;;21.10;41.69;100505.00;5107349;28;20114;-68
2023/05/10 10:05:29;;;;;;;1.70;1.50;;;;;;;21.06;41.36;100494.69;5106985;28;20455;-69
2023/05/10 10:07:57;;;;;;;3.30;2.13;;;;;;;21.16;41.34;100506.09;5095299;28;20032;-68
2023/05/10 10:10:23;;;;;;;2.45;2.25;;;;;;;21.28;40.28;100508.06;5106904;28;20051;-69
2023/05/10 10:12:49;;;;;;;3.28;1.65;;;;;;;21.19;40.40;100501.09;5086969;28;20054;-68
2023/05/10 10:15:16;;;;;;;1.95;1.83;;;;;;;21.25;40.43;100511.19;5089002;28;20023;-69
2023/05/10 10:17:43;;;;;;;2.30;2.10;;;;;;;21.15;40.14;100472.50;5107397;28;20459;-68
2023/05/10 10:20:10;;;;;;;2.40;2.20;;;;;;;21.30;40.47;100506.00;5107151;28;20096;-68
2023/05/10 10:22:37;;;;;;;2.38;2.00;;;;;;;21.34;41.10;100495.50;5107041;28;20114;-69
2023/05/10 10:25:03;;;;;;;5.65;2.05;;;;;;;21.44;41.16;100494.13;5105001;28;20040;-69
2023/05/10 10:28:04;;;;;;;5.75;2.63;;;;;;;21.58;40.83;100503.25;5106221;28;20552;-68
2023/05/10 10:30:35;;;;;;;6.93;2.42;;;;;;;21.67;40.45;100499.31;5071760;28;20036;-68
2023/05/10 10:33:40;;;;;;;3.60;2.70;;;;;;;21.74;40.37;100487.38;5088594;28;20032;-68
2023/05/10 10:36:06;;;;;;;2.40;2.20;;;;;;;21.86;40.41;100490.41;5106315;28;20060;-69
2023/05/10 10:38:47;;;;;;;3.10;2.80;;;;;;;21.94;39.65;100506.63;5088401;28;20029;-68
2023/05/10 10:41:35;;;;;;;2.90;2.70;;;;;;;21.86;38.36;100493.97;5104778;28;20055;-68
2023/05/10 10:44:25;;;;;;;4.32;2.83;;;;;;;21.78;39.37;100499.63;5105089;28;20440;-67
2023/05/10 10:47:11;;;;;;;2.60;2.40;;;;;;;21.70;38.80;100488.00;5105672;28;20046;-68
2023/05/10 10:49:39;;;;;;;2.88;2.50;;;;;;;21.70;38.78;100482.53;5106538;28;20035;-68
2023/05/10 10:52:38;;;;;;;3.28;2.97;;;;;;;21.72;39.18;100492.19;5108376;28;20078;-68
2023/05/10 10:55:24;;;;;;;3.28;2.75;;;;;;;21.72;38.65;100483.16;5106659;28;20080;-68
2023/05/10 10:57:54;;;;;;;2.30;2.00;;;;;;;21.70;38.37;100475.16;5108494;28;20043;-67
2023/05/10 11:00:21;;;;;;;2.80;2.47;;;;;;;21.69;38.67;100464.44;5108878;28;20024;-68
2023/05/10 11:02:49;;;;;;;2.42;2.22;;;;;;;21.58;39.40;100457.69;5104582;28;20034;-68
2023/05/10 11:05:41;;;;;;;3.13;2.83;;;;;;;21.71;39.82;100474.13;5106804;28;20522;-68
2023/05/10 11:08:10;;;;;;;2.70;2.45;;;;;;;21.75;39.16;100469.97;5103261;28;20136;-68
2023/05/10 11:10:35;;;;;;;2.25;2.10;;;;;;;21.71;38.53;100460.47;5108585;28;20038;-68
2023/05/10 11:13:05;;;;;;;2.22;2.00;;;;;;;21.70;38.34;100457.94;5108015;28;20023;-68
2023/05/10 11:15:39;;;;;;;4.82;2.10;;;;;;;21.65;38.09;100441.31;5108708;28;20392;-68
2023/05/10 11:18:23;;;;;;;2.80;1.90;;;;;;;21.61;38.16;100431.84;5108584;28;20157;-68
2023/05/10 11:20:52;;;;;;;4.95;2.28;;;;;;;21.78;38.27;100452.34;5108677;28;20632;-68
2023/05/10 11:23:19;;;;;;;3.00;2.03;;;;;;;21.81;37.87;100449.19;5108223;28;20434;-68
2023/05/10 11:25:45;;;;;;;2.08;1.85;;;;;;;21.78;38.16;100453.19;5108496;28;20031;-68
2023/05/10 11:28:12;;;;;;;6.47;2.03;;;;;;;21.69;37.71;100431.66;5090305;28;20377;-68
2023/05/10 11:30:43;;;;;;;4.07;1.65;;;;;;;21.68;37.96;100435.47;5108518;28;20023;-66